sensor_id;sensor_type;location;lat;lon;timestamp;pressure;altitude;pressure_sealevel;temperature;humidity
5780;BME280;2916;49.798;10.022;2023-04-07T00:01:51;146134.44;;;7.44;66.04
5780;BME280;2916;49.798;10.022;2023-04-07T00:04:19;146159.19;;;7.54;65.69
5780;BME280;2916;49.798;10.022;2023-04-07T00:06:46;146191.41;;;7.67;66.12
5780;BME280;2916;49.798;10.022;2023-04-07T00:09:13;146161.69;;;7.55;66.14
5780;BME280;2916;49.798;10.022;2023-04-07T00:11:41;146164.16;;;7.56;67.60
5780;BME280;2916;49.798;10.022;2023-04-07T00:14:08;146151.78;;;7.51;67.53
5780;BME280;2916;49.798;10.022;2023-04-07T00:16:35;146170.38;;;7.58;69.37
5780;BME280;2916;49.798;10.022;2023-04-07T00:19:04;146161.69;;;7.55;69.71
5780;BME280;2916;49.798;10.022;2023-04-07T00:21:31;146155.50;;;7.52;68.13
5780;BME280;2916;49.798;10.022;2023-04-07T00:23:58;146156.72;;;7.53;69.08
5780;BME280;2916;49.798;10.022;2023-04-07T00:26:25;146131.94;;;7.43;69.77
5780;BME280;2916;49.798;10.022;2023-04-07T00:28:56;146127.00;;;7.41;69.43
5780;BME280;2916;49.798;10.022;2023-04-07T00:31:23;146124.53;;;7.40;71.61
5780;BME280;2916;49.798;10.022;2023-04-07T00:33:50;146102.22;;;7.30;73.07
5780;BME280;2916;49.798;10.022;2023-04-07T00:36:19;146094.84;;;7.27;74.82
5780;BME280;2916;49.798;10.022;2023-04-07T00:38:46;146075.03;;;7.19;76.23
5780;BME280;2916;49.798;10.022;2023-04-07T00:41:13;146084.94;;;7.23;75.76
5780;BME280;2916;49.798;10.022;2023-04-07T00:43:40;146028.00;;;7.00;76.27
5780;BME280;2916;49.798;10.022;2023-04-07T00:46:07;146082.44;;;7.22;76.99
5780;BME280;2916;49.798;10.022;2023-04-07T00:48:36;146062.63;;;7.14;79.01
5780;BME280;2916;49.798;10.022;2023-04-07T00:51:04;146051.50;;;7.09;79.41
5780;BME280;2916;49.798;10.022;2023-04-07T00:53:34;146052.72;;;7.10;79.60
5780;BME280;2916;49.798;10.022;2023-04-07T00:56:01;146055.19;;;7.11;79.71
5780;BME280;2916;49.798;10.022;2023-04-07T00:58:28;146014.34;;;6.94;81.06
5780;BME280;2916;49.798;10.022;2023-04-07T01:01:11;146035.38;;;7.03;81.48
5780;BME280;2916;49.798;10.022;2023-04-07T01:03:54;145900.50;;;6.47;82.52
5780;BME280;2916;49.798;10.022;2023-04-07T01:06:27;146011.88;;;6.93;82.69
5780;BME280;2916;49.798;10.022;2023-04-07T01:09:04;145978.47;;;6.79;81.65
5780;BME280;2916;49.798;10.022;2023-04-07T01:11:41;146009.44;;;6.92;82.45
5780;BME280;2916;49.798;10.022;2023-04-07T01:14:14;145989.63;;;6.84;83.57
5780;BME280;2916;49.798;10.022;2023-04-07T01:16:48;145963.63;;;6.73;83.71
5780;BME280;2916;49.798;10.022;2023-04-07T01:19:32;145945.06;;;6.66;84.65
5780;BME280;2916;49.798;10.022;2023-04-07T01:22:02;145916.59;;;6.54;86.89
5780;BME280;2916;49.798;10.022;2023-04-07T01:25:05;145867.13;;;6.33;85.78
5780;BME280;2916;49.798;10.022;2023-04-07T01:27:42;145859.69;;;6.30;86.45
5780;BME280;2916;49.798;10.022;2023-04-07T01:30:18;145817.59;;;6.13;85.60
5780;BME280;2916;49.798;10.022;2023-04-07T01:32:51;145857.22;;;6.29;87.42
5780;BME280;2916;49.798;10.022;2023-04-07T01:35:19;145859.69;;;6.30;88.78
5780;BME280;2916;49.798;10.022;2023-04-07T01:37:49;145849.78;;;6.26;88.45
5780;BME280;2916;49.798;10.022;2023-04-07T01:40:20;145857.22;;;6.29;89.38
5780;BME280;2916;49.798;10.022;2023-04-07T01:42:48;145869.59;;;6.34;89.87
5780;BME280;2916;49.798;10.022;2023-04-07T01:45:19;145847.34;;;6.25;89.02
5780;BME280;2916;49.798;10.022;2023-04-07T01:47:47;145838.66;;;6.22;90.28
5780;BME280;2916;49.798;10.022;2023-04-07T01:50:15;145815.16;;;6.12;88.39
5780;BME280;2916;49.798;10.022;2023-04-07T01:52:44;145832.47;;;6.19;89.40
5780;BME280;2916;49.798;10.022;2023-04-07T01:55:13;145830.00;;;6.18;89.52
5780;BME280;2916;49.798;10.022;2023-04-07T01:57:43;145821.34;;;6.14;90.54
5780;BME280;2916;49.798;10.022;2023-04-07T02:00:11;145818.88;;;6.13;91.36
5780;BME280;2916;49.798;10.022;2023-04-07T02:02:44;145807.72;;;6.09;91.63
5780;BME280;2916;49.798;10.022;2023-04-07T02:05:18;145802.78;;;6.07;91.42
5780;BME280;2916;49.798;10.022;2023-04-07T02:07:52;145799.09;;;6.05;92.20
5780;BME280;2916;49.798;10.022;2023-04-07T02:10:24;145739.66;;;5.81;92.33
5780;BME280;2916;49.798;10.022;2023-04-07T02:12:54;145688.97;;;5.60;91.34
5780;BME280;2916;49.798;10.022;2023-04-07T02:15:24;145778.03;;;5.97;92.05
5780;BME280;2916;49.798;10.022;2023-04-07T02:17:57;145781.78;;;5.98;91.05
5780;BME280;2916;49.798;10.022;2023-04-07T02:20:26;145768.13;;;5.93;91.87
5780;BME280;2916;49.798;10.022;2023-04-07T02:22:54;145778.03;;;5.97;93.30
5780;BME280;2916;49.798;10.022;2023-04-07T02:25:24;145723.59;;;5.74;94.04
5780;BME280;2916;49.798;10.022;2023-04-07T02:27:53;145763.16;;;5.90;93.84
5780;BME280;2916;49.798;10.022;2023-04-07T02:30:22;145734.72;;;5.79;94.17
5780;BME280;2916;49.798;10.022;2023-04-07T02:32:49;145639.53;;;5.39;94.45
5780;BME280;2916;49.798;10.022;2023-04-07T02:35:18;145723.59;;;5.74;94.59
5780;BME280;2916;49.798;10.022;2023-04-07T02:37:46;145771.88;;;5.94;95.38
5780;BME280;2916;49.798;10.022;2023-04-07T02:40:13;145696.41;;;5.63;95.33
5780;BME280;2916;49.798;10.022;2023-04-07T02:42:41;145755.75;;;5.87;96.03
5780;BME280;2916;49.798;10.022;2023-04-07T02:45:10;145731.00;;;5.77;96.22
5780;BME280;2916;49.798;10.022;2023-04-07T02:47:38;145745.84;;;5.83;95.58
5780;BME280;2916;49.798;10.022;2023-04-07T02:50:06;145754.50;;;5.87;96.03
5780;BME280;2916;49.798;10.022;2023-04-07T02:52:35;145750.78;;;5.85;96.72
5780;BME280;2916;49.798;10.022;2023-04-07T02:55:03;145711.22;;;5.69;96.76
5780;BME280;2916;49.798;10.022;2023-04-07T02:57:30;145768.13;;;5.93;97.14
5780;BME280;2916;49.798;10.022;2023-04-07T02:59:57;145766.91;;;5.92;96.43
5780;BME280;2916;49.798;10.022;2023-04-07T03:02:25;145732.28;;;5.78;96.28
5780;BME280;2916;49.798;10.022;2023-04-07T03:04:52;145760.72;;;5.89;96.46
5780;BME280;2916;49.798;10.022;2023-04-07T03:07:19;145765.63;;;5.91;95.88
5780;BME280;2916;49.798;10.022;2023-04-07T03:09:48;145768.13;;;5.93;97.48
5780;BME280;2916;49.798;10.022;2023-04-07T03:12:15;145701.31;;;5.65;97.40
5780;BME280;2916;49.798;10.022;2023-04-07T03:14:43;145763.16;;;5.90;98.00
5780;BME280;2916;49.798;10.022;2023-04-07T03:17:10;145748.31;;;5.84;97.08
5780;BME280;2916;49.798;10.022;2023-04-07T03:19:37;145745.84;;;5.83;97.52
5780;BME280;2916;49.798;10.022;2023-04-07T03:22:04;145737.19;;;5.80;97.51
5780;BME280;2916;49.798;10.022;2023-04-07T03:24:31;145722.34;;;5.74;97.43
5780;BME280;2916;49.798;10.022;2023-04-07T03:27:00;145724.84;;;5.75;97.23
5780;BME280;2916;49.798;10.022;2023-04-07T03:29:28;145709.97;;;5.69;96.74
5780;BME280;2916;49.798;10.022;2023-04-07T03:31:55;145713.72;;;5.70;96.66
5780;BME280;2916;49.798;10.022;2023-04-07T03:34:22;145718.63;;;5.72;96.07
5780;BME280;2916;49.798;10.022;2023-04-07T03:36:50;145728.53;;;5.76;97.27
5780;BME280;2916;49.798;10.022;2023-04-07T03:39:17;145718.63;;;5.72;96.83
5780;BME280;2916;49.798;10.022;2023-04-07T03:41:44;145566.56;;;5.09;96.86
5780;BME280;2916;49.798;10.022;2023-04-07T03:44:12;145727.31;;;5.76;98.34
5780;BME280;2916;49.798;10.022;2023-04-07T03:46:40;145728.53;;;5.76;97.92
5780;BME280;2916;49.798;10.022;2023-04-07T03:49:07;145718.63;;;5.72;97.92
5780;BME280;2916;49.798;10.022;2023-04-07T03:51:34;145721.09;;;5.73;97.88
5780;BME280;2916;49.798;10.022;2023-04-07T03:54:02;145717.41;;;5.72;98.52
5780;BME280;2916;49.798;10.022;2023-04-07T03:56:29;145711.22;;;5.69;98.08
5780;BME280;2916;49.798;10.022;2023-04-07T03:58:56;145701.31;;;5.65;99.52
5780;BME280;2916;49.798;10.022;2023-04-07T04:01:25;145706.28;;;5.67;99.05
5780;BME280;2916;49.798;10.022;2023-04-07T04:03:52;145708.75;;;5.68;99.16
5780;BME280;2916;49.798;10.022;2023-04-07T04:06:19;145649.41;;;5.44;98.78
5780;BME280;2916;49.798;10.022;2023-04-07T04:08:46;145706.28;;;5.67;99.56
5780;BME280;2916;49.798;10.022;2023-04-07T04:11:14;145703.81;;;5.66;99.47
5780;BME280;2916;49.798;10.022;2023-04-07T04:13:41;145706.28;;;5.67;99.35
5780;BME280;2916;49.798;10.022;2023-04-07T04:16:09;145700.09;;;5.64;99.73
5780;BME280;2916;49.798;10.022;2023-04-07T04:18:37;145692.66;;;5.61;99.55
5780;BME280;2916;49.798;10.022;2023-04-07T04:21:05;145649.41;;;5.44;100.00
5780;BME280;2916;49.798;10.022;2023-04-07T04:23:32;145686.50;;;5.59;99.98
5780;BME280;2916;49.798;10.022;2023-04-07T04:26:00;145671.66;;;5.53;99.88
5780;BME280;2916;49.798;10.022;2023-04-07T04:28:28;145674.13;;;5.54;100.00
5780;BME280;2916;49.798;10.022;2023-04-07T04:30:56;145667.97;;;5.51;99.71
5780;BME280;2916;49.798;10.022;2023-04-07T04:33:24;145664.22;;;5.50;100.00
5780;BME280;2916;49.798;10.022;2023-04-07T04:35:52;145665.50;;;5.50;100.00
5780;BME280;2916;49.798;10.022;2023-04-07T04:38:19;145669.19;;;5.52;100.00
5780;BME280;2916;49.798;10.022;2023-04-07T04:40:46;145660.53;;;5.48;100.00
5780;BME280;2916;49.798;10.022;2023-04-07T04:43:14;145670.41;;;5.52;100.00
5780;BME280;2916;49.798;10.022;2023-04-07T04:45:41;145641.97;;;5.40;100.00
5780;BME280;2916;49.798;10.022;2023-04-07T04:48:08;145654.34;;;5.46;100.00
5780;BME280;2916;49.798;10.022;2023-04-07T04:50:35;145661.75;;;5.49;100.00
5780;BME280;2916;49.798;10.022;2023-04-07T04:53:04;145645.66;;;5.42;99.06
5780;BME280;2916;49.798;10.022;2023-04-07T04:55:31;145629.63;;;5.35;99.31
5780;BME280;2916;49.798;10.022;2023-04-07T04:57:59;145540.59;;;4.99;100.00
5780;BME280;2916;49.798;10.022;2023-04-07T05:00:26;145629.63;;;5.35;100.00
5780;BME280;2916;49.798;10.022;2023-04-07T05:02:53;145645.66;;;5.42;100.00
5780;BME280;2916;49.798;10.022;2023-04-07T05:05:21;145617.25;;;5.30;99.70
5780;BME280;2916;49.798;10.022;2023-04-07T05:07:48;145646.94;;;5.43;99.81
5780;BME280;2916;49.798;10.022;2023-04-07T05:10:17;145637.06;;;5.38;100.00
5780;BME280;2916;49.798;10.022;2023-04-07T05:12:44;145644.44;;;5.41;100.00
5780;BME280;2916;49.798;10.022;2023-04-07T05:15:11;145658.06;;;5.47;100.00
5780;BME280;2916;49.798;10.022;2023-04-07T05:17:40;145639.53;;;5.39;100.00
5780;BME280;2916;49.798;10.022;2023-04-07T05:20:09;145640.75;;;5.40;100.00
5780;BME280;2916;49.798;10.022;2023-04-07T05:22:36;145638.28;;;5.39;100.00
5780;BME280;2916;49.798;10.022;2023-04-07T05:25:05;145639.53;;;5.39;100.00
5780;BME280;2916;49.798;10.022;2023-04-07T05:27:33;145632.09;;;5.36;100.00
5780;BME280;2916;49.798;10.022;2023-04-07T05:30:01;145627.13;;;5.34;100.00
5780;BME280;2916;49.798;10.022;2023-04-07T05:32:28;145607.34;;;5.26;100.00
5780;BME280;2916;49.798;10.022;2023-04-07T05:34:56;145614.78;;;5.29;100.00
5780;BME280;2916;49.798;10.022;2023-04-07T05:37:23;145641.97;;;5.40;100.00
5780;BME280;2916;49.798;10.022;2023-04-07T05:39:50;145639.53;;;5.39;100.00
5780;BME280;2916;49.798;10.022;2023-04-07T05:42:18;145619.75;;;5.31;100.00
5780;BME280;2916;49.798;10.022;2023-04-07T05:44:46;145640.75;;;5.40;100.00
5780;BME280;2916;49.798;10.022;2023-04-07T05:47:13;145648.19;;;5.43;100.00
5780;BME280;2916;49.798;10.022;2023-04-07T05:49:41;145639.53;;;5.39;100.00
5780;BME280;2916;49.798;10.022;2023-04-07T05:52:11;145651.88;;;5.45;100.00
5780;BME280;2916;49.798;10.022;2023-04-07T05:54:38;145656.84;;;5.47;100.00
5780;BME280;2916;49.798;10.022;2023-04-07T05:57:06;145651.88;;;5.45;100.00
5780;BME280;2916;49.798;10.022;2023-04-07T05:59:33;145667.97;;;5.51;100.00
5780;BME280;2916;49.798;10.022;2023-04-07T06:02:03;145680.31;;;5.56;100.00
5780;BME280;2916;49.798;10.022;2023-04-07T06:04:31;145674.13;;;5.54;100.00
5780;BME280;2916;49.798;10.022;2023-04-07T06:07:00;145701.31;;;5.65;100.00
5780;BME280;2916;49.798;10.022;2023-04-07T06:09:27;145701.31;;;5.65;100.00
5780;BME280;2916;49.798;10.022;2023-04-07T06:11:54;145659.31;;;5.48;100.00
5780;BME280;2916;49.798;10.022;2023-04-07T06:14:23;145703.81;;;5.66;100.00
5780;BME280;2916;49.798;10.022;2023-04-07T06:16:50;145696.41;;;5.63;100.00
5780;BME280;2916;49.798;10.022;2023-04-07T06:19:19;145646.94;;;5.43;100.00
5780;BME280;2916;49.798;10.022;2023-04-07T06:21:46;145676.63;;;5.55;100.00
5780;BME280;2916;49.798;10.022;2023-04-07T06:24:13;145630.88;;;5.36;100.00
5780;BME280;2916;49.798;10.022;2023-04-07T06:26:40;145747.09;;;5.84;100.00
5780;BME280;2916;49.798;10.022;2023-04-07T06:29:08;145756.97;;;5.88;100.00
5780;BME280;2916;49.798;10.022;2023-04-07T06:31:35;145753.28;;;5.86;100.00
5780;BME280;2916;49.798;10.022;2023-04-07T06:34:02;145754.50;;;5.87;100.00
5780;BME280;2916;49.798;10.022;2023-04-07T06:36:31;145721.09;;;5.73;100.00
5780;BME280;2916;49.798;10.022;2023-04-07T06:38:59;145739.66;;;5.81;100.00
5780;BME280;2916;49.798;10.022;2023-04-07T06:41:26;145775.56;;;5.96;100.00
5780;BME280;2916;49.798;10.022;2023-04-07T06:43:54;145644.44;;;5.41;99.64
5780;BME280;2916;49.798;10.022;2023-04-07T06:46:21;145775.56;;;5.96;99.75
5780;BME280;2916;49.798;10.022;2023-04-07T06:48:50;145698.84;;;5.64;99.23
5780;BME280;2916;49.798;10.022;2023-04-07T06:51:17;145748.31;;;5.84;100.00
5780;BME280;2916;49.798;10.022;2023-04-07T06:53:46;145761.94;;;5.90;100.00
5780;BME280;2916;49.798;10.022;2023-04-07T06:56:13;145768.13;;;5.93;100.00
5780;BME280;2916;49.798;10.022;2023-04-07T06:58:40;145834.94;;;6.20;100.00
5780;BME280;2916;49.798;10.022;2023-04-07T07:01:08;145745.84;;;5.83;100.00
5780;BME280;2916;49.798;10.022;2023-04-07T07:03:35;145828.78;;;6.18;100.00
5780;BME280;2916;49.798;10.022;2023-04-07T07:06:03;145780.53;;;5.98;100.00
5780;BME280;2916;49.798;10.022;2023-04-07T07:08:31;145789.22;;;6.01;100.00
5780;BME280;2916;49.798;10.022;2023-04-07T07:10:59;145839.91;;;6.22;100.00
5780;BME280;2916;49.798;10.022;2023-04-07T07:13:27;145822.56;;;6.15;100.00
5780;BME280;2916;49.798;10.022;2023-04-07T07:15:55;145815.16;;;6.12;100.00
5780;BME280;2916;49.798;10.022;2023-04-07T07:18:22;145847.34;;;6.25;100.00
5780;BME280;2916;49.798;10.022;2023-04-07T07:20:49;145832.47;;;6.19;100.00
5780;BME280;2916;49.798;10.022;2023-04-07T07:23:17;145851.03;;;6.27;100.00
5780;BME280;2916;49.798;10.022;2023-04-07T07:25:44;145813.91;;;6.11;100.00
5780;BME280;2916;49.798;10.022;2023-04-07T07:28:14;145833.69;;;6.20;100.00
5780;BME280;2916;49.798;10.022;2023-04-07T07:30:41;145786.69;;;6.00;100.00
5780;BME280;2916;49.798;10.022;2023-04-07T07:33:08;145872.06;;;6.35;100.00
5780;BME280;2916;49.798;10.022;2023-04-07T07:35:36;145787.94;;;6.01;100.00
5780;BME280;2916;49.798;10.022;2023-04-07T07:38:03;145856.00;;;6.29;100.00
5780;BME280;2916;49.798;10.022;2023-04-07T07:40:31;145891.84;;;6.44;100.00
5780;BME280;2916;49.798;10.022;2023-04-07T07:42:59;145911.63;;;6.52;100.00
5780;BME280;2916;49.798;10.022;2023-04-07T07:45:28;145885.69;;;6.41;100.00
5780;BME280;2916;49.798;10.022;2023-04-07T07:47:55;145890.63;;;6.43;100.00
5780;BME280;2916;49.798;10.022;2023-04-07T07:50:22;145834.94;;;6.20;100.00
5780;BME280;2916;49.798;10.022;2023-04-07T07:52:50;145891.84;;;6.44;100.00
5780;BME280;2916;49.798;10.022;2023-04-07T07:55:17;145938.88;;;6.63;100.00
5780;BME280;2916;49.798;10.022;2023-04-07T07:57:45;145906.72;;;6.50;100.00
5780;BME280;2916;49.798;10.022;2023-04-07T08:00:13;145925.28;;;6.57;100.00
5780;BME280;2916;49.798;10.022;2023-04-07T08:02:42;145958.66;;;6.71;100.00
5780;BME280;2916;49.798;10.022;2023-04-07T08:05:09;145956.19;;;6.70;99.67
5780;BME280;2916;49.798;10.022;2023-04-07T08:07:37;145998.25;;;6.87;99.82
5780;BME280;2916;49.798;10.022;2023-04-07T08:10:06;145946.31;;;6.66;99.18
5780;BME280;2916;49.798;10.022;2023-04-07T08:12:33;145998.25;;;6.87;99.37
5780;BME280;2916;49.798;10.022;2023-04-07T08:15:01;145979.72;;;6.80;99.71
5780;BME280;2916;49.798;10.022;2023-04-07T08:17:28;145948.75;;;6.67;99.65
5780;BME280;2916;49.798;10.022;2023-04-07T08:19:57;146035.38;;;7.03;99.26
5780;BME280;2916;49.798;10.022;2023-04-07T08:22:24;146088.63;;;7.25;98.97
5780;BME280;2916;49.798;10.022;2023-04-07T08:24:52;146055.19;;;7.11;96.05
5780;BME280;2916;49.798;10.022;2023-04-07T08:27:19;146041.59;;;7.05;94.64
5780;BME280;2916;49.798;10.022;2023-04-07T08:29:58;145977.22;;;6.79;95.46
5780;BME280;2916;49.798;10.022;2023-04-07T08:32:33;146035.38;;;7.03;94.93
5780;BME280;2916;49.798;10.022;2023-04-07T08:35:02;146104.75;;;7.31;94.20
5780;BME280;2916;49.798;10.022;2023-04-07T08:37:30;146127.00;;;7.41;93.41
5780;BME280;2916;49.798;10.022;2023-04-07T08:39:57;146144.34;;;7.48;92.96
5780;BME280;2916;49.798;10.022;2023-04-07T08:42:30;146113.41;;;7.35;92.38
5780;BME280;2916;49.798;10.022;2023-04-07T08:45:03;146161.69;;;7.55;92.99
5780;BME280;2916;49.798;10.022;2023-04-07T08:47:32;146196.34;;;7.69;94.25
5780;BME280;2916;49.798;10.022;2023-04-07T08:50:05;146219.91;;;7.79;92.79
5780;BME280;2916;49.798;10.022;2023-04-07T08:52:54;146231.03;;;7.83;91.12
5780;BME280;2916;49.798;10.022;2023-04-07T08:55:22;146249.63;;;7.91;89.52
5780;BME280;2916;49.798;10.022;2023-04-07T08:57:51;146255.78;;;7.94;89.07
5780;BME280;2916;49.798;10.022;2023-04-07T09:00:19;146275.63;;;8.02;88.73
5780;BME280;2916;49.798;10.022;2023-04-07T09:02:47;146286.78;;;8.06;88.46
5780;BME280;2916;49.798;10.022;2023-04-07T09:05:17;146203.78;;;7.72;87.67
5780;BME280;2916;49.798;10.022;2023-04-07T09:07:46;146255.78;;;7.94;89.13
5780;BME280;2916;49.798;10.022;2023-04-07T09:10:13;146208.75;;;7.74;88.21
5780;BME280;2916;49.798;10.022;2023-04-07T09:12:42;146352.44;;;8.33;87.55
5780;BME280;2916;49.798;10.022;2023-04-07T09:15:10;146416.88;;;8.60;87.98
5780;BME280;2916;49.798;10.022;2023-04-07T09:17:37;146450.38;;;8.74;87.29
5780;BME280;2916;49.798;10.022;2023-04-07T09:20:05;146414.41;;;8.59;86.83
5780;BME280;2916;49.798;10.022;2023-04-07T09:22:39;146451.59;;;8.74;87.46
5780;BME280;2916;49.798;10.022;2023-04-07T09:25:14;146548.28;;;9.14;87.89
5780;BME280;2916;49.798;10.022;2023-04-07T09:27:56;146573.09;;;9.24;86.30
5780;BME280;2916;49.798;10.022;2023-04-07T09:30:25;146535.91;;;9.09;83.39
5780;BME280;2916;49.798;10.022;2023-04-07T09:32:53;146579.25;;;9.27;82.81
5780;BME280;2916;49.798;10.022;2023-04-07T09:35:20;146580.50;;;9.27;84.68
5780;BME280;2916;49.798;10.022;2023-04-07T09:38:05;146573.09;;;9.24;84.21
5780;BME280;2916;49.798;10.022;2023-04-07T09:40:33;146556.97;;;9.18;82.20
5780;BME280;2916;49.798;10.022;2023-04-07T09:43:02;146542.06;;;9.12;81.95
5780;BME280;2916;49.798;10.022;2023-04-07T09:45:31;146575.56;;;9.25;81.16
5780;BME280;2916;49.798;10.022;2023-04-07T09:48:04;146590.47;;;9.31;80.02
5780;BME280;2916;49.798;10.022;2023-04-07T09:50:33;146587.94;;;9.30;79.94
5780;BME280;2916;49.798;10.022;2023-04-07T09:53:03;146630.13;;;9.48;80.37
5780;BME280;2916;49.798;10.022;2023-04-07T09:55:32;146570.56;;;9.23;79.09
5780;BME280;2916;49.798;10.022;2023-04-07T09:58:00;146663.59;;;9.62;81.13
5780;BME280;2916;49.798;10.022;2023-04-07T10:00:27;146602.84;;;9.37;78.83
5780;BME280;2916;49.798;10.022;2023-04-07T10:02:55;146558.19;;;9.18;77.43
5780;BME280;2916;49.798;10.022;2023-04-07T10:05:24;146585.47;;;9.29;78.32
5780;BME280;2916;49.798;10.022;2023-04-07T10:07:51;146651.19;;;9.56;79.38
5780;BME280;2916;49.798;10.022;2023-04-07T10:10:20;146600.38;;;9.36;79.07
5780;BME280;2916;49.798;10.022;2023-04-07T10:12:50;146632.59;;;9.49;77.52
5780;BME280;2916;49.798;10.022;2023-04-07T10:15:20;146583.00;;;9.28;76.68
5780;BME280;2916;49.798;10.022;2023-04-07T10:17:48;146667.34;;;9.63;78.69
5780;BME280;2916;49.798;10.022;2023-04-07T10:20:18;146630.13;;;9.48;77.38
5780;BME280;2916;49.798;10.022;2023-04-07T10:22:49;146648.72;;;9.55;76.57
5780;BME280;2916;49.798;10.022;2023-04-07T10:25:21;146658.66;;;9.59;75.46
5780;BME280;2916;49.798;10.022;2023-04-07T10:27:55;146699.56;;;9.76;76.85
5780;BME280;2916;49.798;10.022;2023-04-07T10:30:29;146750.41;;;9.97;74.04
5780;BME280;2916;49.798;10.022;2023-04-07T10:32:57;146720.63;;;9.85;73.55
5780;BME280;2916;49.798;10.022;2023-04-07T10:35:25;146716.94;;;9.83;75.25
5780;BME280;2916;49.798;10.022;2023-04-07T10:38:12;146702.03;;;9.77;73.82
5780;BME280;2916;49.798;10.022;2023-04-07T10:40:42;146788.84;;;10.13;73.72
5780;BME280;2916;49.798;10.022;2023-04-07T10:43:10;146745.47;;;9.95;73.66
5780;BME280;2916;49.798;10.022;2023-04-07T10:45:57;146781.44;;;10.10;73.38
5780;BME280;2916;49.798;10.022;2023-04-07T10:48:27;146853.44;;;10.40;74.47
5780;BME280;2916;49.798;10.022;2023-04-07T10:51:15;146994.91;;;10.98;74.39
5780;BME280;2916;49.798;10.022;2023-04-07T10:54:19;146891.88;;;10.55;71.05
5780;BME280;2916;49.798;10.022;2023-04-07T10:57:13;146937.81;;;10.74;71.31
5780;BME280;2916;49.798;10.022;2023-04-07T11:00:15;146944.03;;;10.77;70.54
5780;BME280;2916;49.798;10.022;2023-04-07T11:02:43;146984.97;;;10.94;70.30
5780;BME280;2916;49.798;10.022;2023-04-07T11:05:20;146973.81;;;10.89;69.58
5780;BME280;2916;49.798;10.022;2023-04-07T11:07:52;146927.91;;;10.70;71.72
5780;BME280;2916;49.798;10.022;2023-04-07T11:10:30;146997.38;;;10.99;69.67
5780;BME280;2916;49.798;10.022;2023-04-07T11:13:04;146989.94;;;10.96;68.15
5780;BME280;2916;49.798;10.022;2023-04-07T11:15:33;147040.84;;;11.17;69.56
5780;BME280;2916;49.798;10.022;2023-04-07T11:18:25;147044.56;;;11.18;68.37
5780;BME280;2916;49.798;10.022;2023-04-07T11:20:54;147027.16;;;11.11;69.21
5780;BME280;2916;49.798;10.022;2023-04-07T11:23:23;147071.88;;;11.29;68.57
5780;BME280;2916;49.798;10.022;2023-04-07T11:25:58;147198.53;;;11.82;67.38
5780;BME280;2916;49.798;10.022;2023-04-07T11:28:28;147165.03;;;11.68;67.06
5780;BME280;2916;49.798;10.022;2023-04-07T11:30:57;147097.97;;;11.40;66.29
5780;BME280;2916;49.798;10.022;2023-04-07T11:33:26;147052.00;;;11.21;66.97
5780;BME280;2916;49.798;10.022;2023-04-07T11:35:56;147073.13;;;11.30;68.84
5780;BME280;2916;49.798;10.022;2023-04-07T11:38:26;147094.22;;;11.39;69.20
5780;BME280;2916;49.798;10.022;2023-04-07T11:40:55;147109.13;;;11.45;68.24
5780;BME280;2916;49.798;10.022;2023-04-07T11:43:25;147204.81;;;11.84;68.92
5780;BME280;2916;49.798;10.022;2023-04-07T11:46:13;147438.38;;;12.80;68.52
5780;BME280;2916;49.798;10.022;2023-04-07T11:48:43;147476.88;;;12.96;66.57
5780;BME280;2916;49.798;10.022;2023-04-07T11:51:16;147288.03;;;12.18;65.57
5780;BME280;2916;49.798;10.022;2023-04-07T11:53:44;147240.84;;;11.99;66.07
5780;BME280;2916;49.798;10.022;2023-04-07T11:56:15;147177.44;;;11.73;65.41
5780;BME280;2916;49.798;10.022;2023-04-07T11:58:47;147230.91;;;11.95;68.16
5780;BME280;2916;49.798;10.022;2023-04-07T12:01:16;147127.75;;;11.52;65.62
5780;BME280;2916;49.798;10.022;2023-04-07T12:03:57;147224.69;;;11.92;64.46
5780;BME280;2916;49.798;10.022;2023-04-07T12:06:27;147295.47;;;12.21;65.48
5780;BME280;2916;49.798;10.022;2023-04-07T12:08:55;147327.78;;;12.35;65.76
5780;BME280;2916;49.798;10.022;2023-04-07T12:11:23;147393.66;;;12.62;67.31
5780;BME280;2916;49.798;10.022;2023-04-07T12:13:51;147338.97;;;12.39;66.28
5780;BME280;2916;49.798;10.022;2023-04-07T12:16:20;147330.25;;;12.36;65.74
5780;BME280;2916;49.798;10.022;2023-04-07T12:18:47;147345.19;;;12.42;65.96
5780;BME280;2916;49.798;10.022;2023-04-07T12:21:16;147330.25;;;12.36;63.83
5780;BME280;2916;49.798;10.022;2023-04-07T12:23:43;147245.78;;;12.01;64.43
5780;BME280;2916;49.798;10.022;2023-04-07T12:26:12;147384.94;;;12.58;64.51
5780;BME280;2916;49.798;10.022;2023-04-07T12:28:39;147404.84;;;12.66;64.01
5780;BME280;2916;49.798;10.022;2023-04-07T12:31:06;147437.13;;;12.80;65.39
5780;BME280;2916;49.798;10.022;2023-04-07T12:33:36;147484.38;;;12.99;64.51
5780;BME280;2916;49.798;10.022;2023-04-07T12:36:04;147450.81;;;12.85;65.42
5780;BME280;2916;49.798;10.022;2023-04-07T12:38:31;147510.47;;;13.10;64.14
5780;BME280;2916;49.798;10.022;2023-04-07T12:40:59;147413.53;;;12.70;64.56
5780;BME280;2916;49.798;10.022;2023-04-07T12:43:28;147464.47;;;12.91;66.42
5780;BME280;2916;49.798;10.022;2023-04-07T12:45:55;147632.38;;;13.60;66.10
5780;BME280;2916;49.798;10.022;2023-04-07T12:48:24;147603.78;;;13.48;63.13
5780;BME280;2916;49.798;10.022;2023-04-07T12:50:54;147693.31;;;13.85;63.01
5780;BME280;2916;49.798;10.022;2023-04-07T12:53:21;147389.91;;;12.60;62.82
5780;BME280;2916;49.798;10.022;2023-04-07T12:55:48;147550.31;;;13.26;63.66
5780;BME280;2916;49.798;10.022;2023-04-07T12:58:15;147442.13;;;12.82;61.68
5780;BME280;2916;49.798;10.022;2023-04-07T13:00:43;147619.91;;;13.55;62.98
5780;BME280;2916;49.798;10.022;2023-04-07T13:03:11;147315.34;;;12.29;62.74
5780;BME280;2916;49.798;10.022;2023-04-07T13:05:39;147399.84;;;12.64;64.80
5780;BME280;2916;49.798;10.022;2023-04-07T13:08:07;147504.25;;;13.07;64.55
5780;BME280;2916;49.798;10.022;2023-04-07T13:10:35;147800.28;;;14.29;64.06
5780;BME280;2916;49.798;10.022;2023-04-07T13:13:02;147877.47;;;14.60;62.56
5780;BME280;2916;49.798;10.022;2023-04-07T13:15:30;147626.16;;;13.57;59.70
5780;BME280;2916;49.798;10.022;2023-04-07T13:17:57;147521.66;;;13.14;61.88